createdAt,value
2018-12-08T00:00:25.335Z,93.52
2018-12-08T00:02:54.407Z,93.87
2018-12-08T00:05:23.380Z,93.47
2018-12-08T00:07:52.652Z,92.88
2018-12-08T00:10:21.610Z,92.58
2018-12-08T00:12:50.729Z,93.05
2018-12-08T00:15:21.949Z,93.41
2018-12-08T00:17:51.074Z,93.13
2018-12-08T00:20:20.001Z,92.92
2018-12-08T00:22:49.228Z,92.75
2018-12-08T00:25:18.202Z,92.66
2018-12-08T00:27:47.137Z,92.22
2018-12-08T00:31:31.861Z,92.37
2018-12-08T00:34:00.804Z,91.05
2018-12-08T00:36:30.205Z,91.48
2018-12-08T00:38:59.109Z,91.14
2018-12-08T00:41:28.166Z,91.08
2018-12-08T00:43:57.163Z,91.20
2018-12-08T00:46:26.166Z,91.22
2018-12-08T00:48:55.366Z,91.56
2018-12-08T00:51:24.461Z,91.27
2018-12-08T00:53:56.393Z,91.71
2018-12-08T00:56:25.462Z,91.50
2018-12-08T00:58:54.595Z,91.96
2018-12-08T01:01:23.543Z,91.70
2018-12-08T01:03:52.507Z,91.59
2018-12-08T01:06:21.924Z,91.99
2018-12-08T01:08:50.892Z,92.14
2018-12-08T01:11:19.913Z,92.07
2018-12-08T01:13:48.874Z,92.61
2018-12-08T01:16:18.160Z,91.98
2018-12-08T01:18:47.107Z,91.99
2018-12-08T01:21:16.173Z,91.91
2018-12-08T01:23:45.206Z,91.53
2018-12-08T01:26:14.206Z,91.06
2018-12-08T01:28:43.643Z,90.71
2018-12-08T01:31:12.693Z,90.10
2018-12-08T01:33:41.618Z,90.77
2018-12-08T01:36:10.632Z,90.35
2018-12-08T01:38:39.964Z,90.59
2018-12-08T01:41:09.112Z,90.12
2018-12-08T01:43:37.990Z,90.56
2018-12-08T01:46:06.936Z,90.72
2018-12-08T01:48:35.877Z,90.17
2018-12-08T01:51:04.978Z,89.58
2018-12-08T01:53:34.145Z,89.88
2018-12-08T01:56:03.286Z,89.89
2018-12-08T01:58:32.250Z,89.88
2018-12-08T02:01:01.386Z,89.93
2018-12-08T02:03:30.340Z,89.52
2018-12-08T02:05:59.356Z,89.67
2018-12-08T02:08:28.405Z,89.77
2018-12-08T02:10:57.535Z,90.14
2018-12-08T02:13:26.574Z,89.26
2018-12-08T02:15:55.667Z,89.59
2018-12-08T02:18:25.007Z,89.49
2018-12-08T02:20:53.978Z,88.85
2018-12-08T02:23:24.404Z,88.69
2018-12-08T02:25:53.340Z,88.69
2018-12-08T02:28:22.354Z,88.62
2018-12-08T02:30:51.638Z,88.63
2018-12-08T02:33:20.583Z,88.64
2018-12-08T02:35:49.631Z,88.67
2018-12-08T02:38:18.596Z,88.72
2018-12-08T02:40:47.539Z,88.42
2018-12-08T02:43:17.364Z,88.50
2018-12-08T02:45:46.269Z,88.90
2018-12-08T02:48:15.236Z,88.80
2018-12-08T02:50:44.329Z,88.85
2018-12-08T02:53:13.541Z,88.62
2018-12-08T02:55:42.916Z,89.29
2018-12-08T02:58:12.319Z,89.00
2018-12-08T03:00:42.113Z,89.21
2018-12-08T03:03:11.060Z,89.49
2018-12-08T03:05:40.082Z,89.52
2018-12-08T03:08:09.118Z,89.58
2018-12-08T03:10:38.562Z,89.69
2018-12-08T03:13:07.556Z,90.08
2018-12-08T03:15:36.697Z,89.63
2018-12-08T03:18:05.961Z,89.45
2018-12-08T03:20:35.017Z,89.43
2018-12-08T03:23:03.898Z,89.83
2018-12-08T03:25:33.821Z,89.79
2018-12-08T03:28:03.193Z,89.55
2018-12-08T03:30:32.095Z,89.71
2018-12-08T03:33:01.036Z,89.41
2018-12-08T03:35:30.001Z,89.85
2018-12-08T03:37:58.927Z,89.79
2018-12-08T03:40:27.851Z,89.52
2018-12-08T03:42:56.896Z,89.51
2018-12-08T03:45:25.858Z,89.49
2018-12-08T03:47:55.162Z,89.60
2018-12-08T03:50:24.112Z,89.03
2018-12-08T03:52:53.346Z,89.87
2018-12-08T03:55:22.408Z,89.17
2018-12-08T03:57:51.576Z,88.92
2018-12-08T04:00:20.792Z,89.26
2018-12-08T04:02:50.053Z,88.77
2018-12-08T04:05:19.744Z,88.82
2018-12-08T04:07:49.190Z,88.89
2018-12-08T04:10:18.520Z,88.43
2018-12-08T04:12:47.490Z,88.68
2018-12-08T04:15:16.446Z,88.98
2018-12-08T04:17:45.360Z,88.90
2018-12-08T04:20:14.623Z,88.98
2018-12-08T04:22:44.278Z,89.01
2018-12-08T04:25:13.335Z,88.74
2018-12-08T04:27:42.754Z,88.40
2018-12-08T04:30:12.253Z,88.12
2018-12-08T04:32:41.513Z,88.41
2018-12-08T04:35:12.045Z,88.13
2018-12-08T04:37:40.966Z,88.23
2018-12-08T04:40:10.365Z,88.11
2018-12-08T04:42:39.742Z,87.64
2018-12-08T04:45:09.064Z,87.65
2018-12-08T04:47:38.067Z,87.97
2018-12-08T04:50:07.430Z,88.52
2018-12-08T04:52:36.353Z,88.46
2018-12-08T04:55:05.685Z,88.16
2018-12-08T04:57:35.015Z,88.25
2018-12-08T05:00:05.149Z,88.30
2018-12-08T05:02:34.214Z,88.13
2018-12-08T05:05:03.389Z,88.06
2018-12-08T05:07:32.315Z,87.76
2018-12-08T05:10:01.367Z,87.90
2018-12-08T05:12:30.410Z,87.84
2018-12-08T05:14:59.297Z,87.81
2018-12-08T05:17:28.628Z,87.63
2018-12-08T05:19:57.701Z,87.42
2018-12-08T05:22:27.248Z,87.40
2018-12-08T05:24:56.395Z,87.76
2018-12-08T05:27:25.305Z,87.57
2018-12-08T05:29:55.531Z,87.39
2018-12-08T05:32:26.871Z,87.71
2018-12-08T05:34:55.796Z,87.58
2018-12-08T05:37:24.814Z,87.69
2018-12-08T05:39:53.802Z,87.88
2018-12-08T05:42:22.707Z,87.50
2018-12-08T05:44:57.628Z,87.14
2018-12-08T05:47:26.609Z,87.32
2018-12-08T05:49:55.548Z,86.83
2018-12-08T05:52:24.566Z,86.17
2018-12-08T05:54:53.462Z,86.64
2018-12-08T05:57:22.529Z,86.40
2018-12-08T05:59:53.150Z,86.71
2018-12-08T06:02:22.161Z,86.16
2018-12-08T06:04:51.119Z,86.47
2018-12-08T06:07:20.097Z,86.59
2018-12-08T06:09:48.999Z,86.47
2018-12-08T06:12:18.120Z,86.45
2018-12-08T06:14:47.023Z,86.52
2018-12-08T06:17:16.041Z,87.34
2018-12-08T06:19:45.013Z,87.38
2018-12-08T06:22:13.960Z,87.79
2018-12-08T06:24:42.907Z,87.67
2018-12-08T06:27:56.476Z,87.60
2018-12-08T06:30:26.033Z,87.44
2018-12-08T06:32:54.871Z,87.82
2018-12-08T06:35:23.851Z,87.81
2018-12-08T06:37:52.753Z,87.94
2018-12-08T06:40:28.996Z,88.07
2018-12-08T06:42:53.317Z,88.11
2018-12-08T06:45:22.190Z,87.78
2018-12-08T06:47:51.116Z,88.29
2018-12-08T06:50:20.033Z,89.19
2018-12-08T06:52:49.051Z,90.66
2018-12-08T06:55:18.010Z,90.80
2018-12-08T06:57:47.025Z,91.51
2018-12-08T07:00:16.074Z,92.14
2018-12-08T07:02:44.971Z,92.09
2018-12-08T07:05:14.991Z,91.86
2018-12-08T07:07:44.386Z,92.31
2018-12-08T07:10:13.269Z,92.61
2018-12-08T07:12:42.579Z,92.25
2018-12-08T07:15:12.000Z,92.49
2018-12-08T07:17:41.475Z,92.04
2018-12-08T07:20:10.493Z,92.20
2018-12-08T07:22:39.365Z,92.08
2018-12-08T07:25:08.431Z,92.60
2018-12-08T07:27:37.417Z,92.58
2018-12-08T07:30:09.929Z,92.06
2018-12-08T07:32:39.184Z,92.34
2018-12-08T07:35:09.007Z,92.24
2018-12-08T07:37:37.937Z,91.76
2018-12-08T07:40:09.051Z,91.35
2018-12-08T07:42:38.033Z,91.63
2018-12-08T07:45:08.793Z,91.32
2018-12-08T07:47:37.765Z,91.47
2018-12-08T07:50:09.094Z,91.61
2018-12-08T07:52:38.262Z,91.72
2018-12-08T07:55:08.257Z,92.35
2018-12-08T07:57:37.249Z,92.62
2018-12-08T08:00:11.500Z,94.19
2018-12-08T08:02:40.573Z,93.62
2018-12-08T08:05:10.110Z,93.92
2018-12-08T08:07:39.142Z,94.02
2018-12-08T08:10:10.459Z,94.68
2018-12-08T08:12:39.612Z,95.08
2018-12-08T08:15:10.424Z,95.68
2018-12-08T08:17:40.113Z,96.24
2018-12-08T08:20:11.579Z,96.91
2018-12-08T08:22:40.634Z,97.96
2018-12-08T08:25:11.490Z,98.38
2018-12-08T08:27:40.399Z,99.48
2018-12-08T08:30:12.157Z,99.55
2018-12-08T08:32:41.132Z,99.76
2018-12-08T08:35:10.208Z,99.36
2018-12-08T08:37:39.151Z,99.51
2018-12-08T08:40:10.433Z,99.17
2018-12-08T08:42:39.409Z,99.09
2018-12-08T08:45:09.290Z,99.37
2018-12-08T08:47:38.293Z,99.99
2018-12-08T08:50:10.278Z,100.00
2018-12-08T08:52:39.379Z,100.00
2018-12-08T08:55:08.530Z,100.00
2018-12-08T08:57:37.470Z,100.00
2018-12-08T09:00:09.395Z,100.00
2018-12-08T09:02:39.130Z,100.00
2018-12-08T09:05:08.200Z,100.00
2018-12-08T09:07:37.363Z,100.00
2018-12-08T09:10:10.610Z,100.00
2018-12-08T09:12:39.599Z,100.00
2018-12-08T09:15:12.415Z,100.00
2018-12-08T09:17:41.604Z,100.00
2018-12-08T09:20:11.414Z,100.00
2018-12-08T09:22:41.121Z,100.00
2018-12-08T09:25:11.183Z,100.00
2018-12-08T09:27:40.118Z,100.00
2018-12-08T09:30:11.953Z,100.00
2018-12-08T09:32:40.983Z,100.00
2018-12-08T09:35:09.946Z,100.00
2018-12-08T09:37:38.947Z,100.00
2018-12-08T09:40:08.278Z,100.00
2018-12-08T09:42:37.200Z,100.00
2018-12-08T09:45:06.950Z,100.00
2018-12-08T09:47:35.998Z,100.00
2018-12-08T09:50:07.112Z,100.00
2018-12-08T09:52:36.248Z,100.00
2018-12-08T09:55:05.919Z,100.00
2018-12-08T09:57:35.454Z,100.00
2018-12-08T10:00:05.782Z,100.00
2018-12-08T10:02:34.892Z,100.00
2018-12-08T10:05:04.210Z,100.00
2018-12-08T10:07:34.088Z,100.00
2018-12-08T10:10:03.671Z,100.00
2018-12-08T10:12:32.554Z,100.00
2018-12-08T10:15:07.573Z,100.00
2018-12-08T10:17:36.606Z,100.00
2018-12-08T10:20:05.788Z,100.00
2018-12-08T10:22:34.775Z,100.00
2018-12-08T10:25:04.192Z,100.00
2018-12-08T10:27:33.493Z,100.00
2018-12-08T10:30:02.586Z,100.00
2018-12-08T10:32:31.524Z,100.00
2018-12-08T10:35:00.570Z,100.00
2018-12-08T10:37:29.471Z,100.00
2018-12-08T10:39:58.401Z,100.00
2018-12-08T10:42:27.469Z,100.00
2018-12-08T10:44:56.407Z,100.00
2018-12-08T10:47:25.298Z,100.00
2018-12-08T10:49:54.337Z,100.00
2018-12-08T10:52:23.245Z,99.88
2018-12-08T10:54:52.252Z,99.80
2018-12-08T10:57:21.465Z,99.88
2018-12-08T10:59:52.085Z,100.00
2018-12-08T11:02:26.824Z,100.00
2018-12-08T11:04:55.847Z,100.00
2018-12-08T11:07:24.785Z,100.00
2018-12-08T11:09:53.746Z,100.00
2018-12-08T11:12:22.711Z,100.00
2018-12-08T11:14:51.711Z,100.00
2018-12-08T11:17:21.102Z,100.00
2018-12-08T11:19:49.954Z,100.00
2018-12-08T11:22:18.910Z,100.00
2018-12-08T11:24:47.833Z,100.00
2018-12-08T11:27:16.729Z,100.00
2018-12-08T11:29:45.828Z,100.00
2018-12-08T11:32:16.007Z,100.00
2018-12-08T11:34:44.960Z,100.00
2018-12-08T11:37:14.034Z,100.00
2018-12-08T11:39:43.830Z,100.00
2018-12-08T11:42:13.158Z,100.00
2018-12-08T11:44:48.691Z,100.00
2018-12-08T11:47:17.639Z,100.00
2018-12-08T11:49:46.551Z,100.00
2018-12-08T11:52:15.597Z,100.00
2018-12-08T11:54:44.603Z,100.00
2018-12-08T11:57:14.108Z,100.00
2018-12-08T11:59:43.095Z,100.00
2018-12-08T12:02:16.482Z,100.00
2018-12-08T12:04:43.530Z,100.00
2018-12-08T12:07:12.526Z,100.00
2018-12-08T12:09:41.433Z,100.00
2018-12-08T12:12:10.384Z,100.00
2018-12-08T12:14:45.364Z,100.00
2018-12-08T12:17:14.410Z,100.00
2018-12-08T12:19:43.482Z,100.00
2018-12-08T12:22:12.511Z,100.00
2018-12-08T12:24:41.405Z,100.00
2018-12-08T12:27:11.284Z,100.00
2018-12-08T12:29:40.300Z,100.00
2018-12-08T12:32:09.190Z,99.52
2018-12-08T12:34:38.285Z,99.58
2018-12-08T12:37:07.451Z,99.08
2018-12-08T12:39:36.433Z,99.42
2018-12-08T12:42:05.772Z,98.83
2018-12-08T12:44:34.706Z,98.57
2018-12-08T12:47:03.820Z,98.89
2018-12-08T12:49:32.773Z,98.35
2018-12-08T12:52:01.725Z,98.64
2018-12-08T12:54:30.975Z,97.41
2018-12-08T12:57:00.235Z,97.13
2018-12-08T12:59:29.487Z,96.52
2018-12-08T13:01:58.439Z,96.35
2018-12-08T13:04:27.406Z,96.29
2018-12-08T13:06:56.499Z,96.06
2018-12-08T13:09:25.489Z,96.19
2018-12-08T13:11:54.551Z,95.89
2018-12-08T13:14:23.474Z,96.29
2018-12-08T13:16:52.359Z,95.63
2018-12-08T13:19:21.366Z,95.19
2018-12-08T13:21:50.263Z,94.30
2018-12-08T13:24:19.220Z,94.03
2018-12-08T13:26:48.498Z,94.10
2018-12-08T13:29:17.411Z,94.34
2018-12-08T13:31:46.393Z,94.43
2018-12-08T13:34:33.124Z,93.59
2018-12-08T13:37:02.015Z,93.28
2018-12-08T13:39:30.890Z,93.78
2018-12-08T13:41:59.893Z,93.66
2018-12-08T13:44:38.760Z,93.67
2018-12-08T13:47:07.838Z,93.25
2018-12-08T13:49:36.754Z,93.29
2018-12-08T13:52:05.809Z,93.40
2018-12-08T13:54:53.293Z,94.47
2018-12-08T13:57:23.034Z,95.46
2018-12-08T13:59:56.372Z,96.21
2018-12-08T14:02:25.758Z,96.84
2018-12-08T14:04:56.555Z,97.92
2018-12-08T14:07:25.656Z,98.61
2018-12-08T14:09:59.936Z,98.80
2018-12-08T14:12:29.622Z,99.18
2018-12-08T14:14:58.495Z,99.28
2018-12-08T14:17:27.422Z,98.61
2018-12-08T14:22:42.239Z,98.41
2018-12-08T14:25:11.173Z,98.94
2018-12-08T14:27:40.186Z,98.57
2018-12-08T14:30:09.497Z,97.81
2018-12-08T14:32:38.667Z,97.64
2018-12-08T14:35:07.853Z,97.26
2018-12-08T14:37:37.141Z,96.81
2018-12-08T14:40:08.081Z,96.40
2018-12-08T14:42:37.242Z,95.89
2018-12-08T14:45:09.289Z,94.99
2018-12-08T14:47:38.360Z,94.55
2018-12-08T14:50:10.165Z,93.52
2018-12-08T14:52:39.219Z,93.43
2018-12-08T14:55:09.643Z,93.84
2018-12-08T14:57:38.707Z,93.50
2018-12-08T15:00:11.751Z,93.01
2018-12-08T15:02:41.044Z,93.40
2018-12-08T15:05:11.132Z,94.14
2018-12-08T15:07:40.248Z,94.74
2018-12-08T15:10:12.573Z,95.17
2018-12-08T15:12:41.430Z,95.65
2018-12-08T15:15:12.306Z,95.60
2018-12-08T15:17:45.647Z,95.64
2018-12-08T15:20:14.661Z,95.30
2018-12-08T15:22:43.560Z,95.06
2018-12-08T15:25:12.553Z,95.05
2018-12-08T15:27:41.471Z,94.56
2018-12-08T15:30:11.509Z,94.59
2018-12-08T15:32:40.497Z,95.29
2018-12-08T15:35:10.757Z,95.91
2018-12-08T15:37:41.069Z,96.72
2018-12-08T15:40:11.219Z,97.63
2018-12-08T15:42:40.417Z,98.58
2018-12-08T15:45:11.190Z,98.38
2018-12-08T15:47:40.093Z,98.20
2018-12-08T15:50:10.874Z,98.97
2018-12-08T15:52:39.755Z,98.49
2018-12-08T15:55:09.074Z,97.90
2018-12-08T15:57:37.984Z,97.58
2018-12-08T16:00:10.698Z,97.55
2018-12-08T16:02:40.827Z,96.98
2018-12-08T16:05:10.410Z,96.73
2018-12-08T16:07:39.433Z,96.79
2018-12-08T16:10:09.451Z,96.06
2018-12-08T16:12:38.376Z,96.53
2018-12-08T16:15:11.339Z,97.34
2018-12-08T16:17:40.435Z,97.78
2018-12-08T16:20:13.317Z,98.08
2018-12-08T16:22:42.395Z,99.34
2018-12-08T16:25:11.349Z,99.52
2018-12-08T16:27:40.322Z,99.73
2018-12-08T16:30:09.913Z,99.29
2018-12-08T16:32:38.831Z,99.19
2018-12-08T16:35:08.069Z,98.42
2018-12-08T16:37:37.004Z,98.10
2018-12-08T16:40:07.060Z,97.96
2018-12-08T16:42:36.061Z,97.67
2018-12-08T16:45:10.888Z,97.56
2018-12-08T16:47:40.128Z,97.80
2018-12-08T16:50:10.368Z,98.31
2018-12-08T16:52:39.410Z,97.95
2018-12-08T16:55:08.762Z,98.50
2018-12-08T16:57:37.660Z,98.19
2018-12-08T17:00:07.966Z,98.93
2018-12-08T17:02:36.950Z,100.00
2018-12-08T17:05:06.019Z,100.00
2018-12-08T17:07:35.061Z,100.00
2018-12-08T17:10:05.384Z,100.00
2018-12-08T17:12:34.364Z,100.00
2018-12-08T17:15:06.125Z,100.00
2018-12-08T17:17:35.155Z,100.00
2018-12-08T17:20:06.347Z,100.00
2018-12-08T17:22:36.093Z,100.00
2018-12-08T17:25:05.914Z,100.00
2018-12-08T17:27:35.224Z,100.00
2018-12-08T17:30:04.958Z,100.00
2018-12-08T17:32:33.901Z,99.58
2018-12-08T17:35:03.152Z,97.98
2018-12-08T17:37:32.361Z,96.98
2018-12-08T17:40:01.397Z,95.65
2018-12-08T17:42:30.438Z,94.92
2018-12-08T17:45:01.209Z,94.71
2018-12-08T17:47:30.154Z,93.18
2018-12-08T17:49:59.060Z,92.98
2018-12-08T17:52:28.016Z,92.33
2018-12-08T17:54:57.079Z,91.76
2018-12-08T17:57:26.050Z,91.53
2018-12-08T17:59:54.926Z,91.14
2018-12-08T18:02:24.022Z,90.66
2018-12-08T18:04:53.441Z,90.38
2018-12-08T18:07:25.116Z,89.83
2018-12-08T18:09:54.427Z,90.37
2018-12-08T18:12:23.745Z,89.59
2018-12-08T18:14:52.617Z,89.80
2018-12-08T18:17:21.785Z,89.74
2018-12-08T18:19:50.750Z,89.80
2018-12-08T18:22:19.936Z,89.69
2018-12-08T18:24:49.081Z,90.47
2018-12-08T18:27:18.011Z,90.50
2018-12-08T18:29:47.019Z,90.59
2018-12-08T18:32:15.998Z,90.88
2018-12-08T18:37:12.138Z,90.66
2018-12-08T18:39:41.303Z,90.56
2018-12-08T18:42:10.908Z,90.19
2018-12-08T18:44:41.704Z,90.62
2018-12-08T18:47:10.916Z,90.99
2018-12-08T18:49:39.938Z,90.32
2018-12-08T18:52:08.978Z,90.23
2018-12-08T18:54:38.207Z,90.37
2018-12-08T18:57:07.266Z,91.41
2018-12-08T18:59:36.131Z,90.92
2018-12-08T19:02:05.137Z,91.15
2018-12-08T19:04:34.095Z,91.49
2018-12-08T19:07:03.377Z,91.32
2018-12-08T19:09:32.338Z,91.33
2018-12-08T19:12:01.275Z,90.93
2018-12-08T19:14:30.258Z,90.96
2018-12-08T19:16:59.256Z,91.20
2018-12-08T19:19:29.902Z,90.71
2018-12-08T19:21:58.992Z,91.12
2018-12-08T19:24:28.351Z,90.82
2018-12-08T19:26:57.240Z,91.10
2018-12-08T19:29:26.800Z,90.64
2018-12-08T19:31:56.239Z,91.13
2018-12-08T19:34:26.090Z,91.05
2018-12-08T19:36:55.250Z,91.26
2018-12-08T19:39:24.625Z,91.22
2018-12-08T19:41:54.890Z,91.22
2018-12-08T19:44:24.429Z,91.46
2018-12-08T19:46:53.551Z,91.11
2018-12-08T19:49:23.796Z,91.18
2018-12-08T19:51:53.460Z,91.16
2018-12-08T19:54:24.386Z,91.57
2018-12-08T19:56:54.091Z,90.86
2018-12-08T19:59:23.460Z,90.41
2018-12-08T20:01:53.144Z,90.29
2018-12-08T20:04:23.096Z,90.96
2018-12-08T20:06:52.213Z,90.66
2018-12-08T20:09:21.308Z,90.91
2018-12-08T20:11:50.724Z,90.59
2018-12-08T20:14:20.006Z,90.79
2018-12-08T20:16:49.489Z,91.02
2018-12-08T20:19:18.696Z,90.50
2018-12-08T20:21:48.143Z,90.69
2018-12-08T20:24:17.320Z,91.78
2018-12-08T20:26:47.234Z,93.13
2018-12-08T20:29:17.120Z,94.89
2018-12-08T20:31:46.431Z,97.28
2018-12-08T20:34:15.480Z,98.74
2018-12-08T20:36:44.495Z,99.54
2018-12-08T20:39:13.756Z,100.00
2018-12-08T20:41:42.690Z,100.00
2018-12-08T20:44:11.683Z,100.00
2018-12-08T20:46:41.224Z,100.00
2018-12-08T20:49:10.219Z,100.00
2018-12-08T20:51:39.615Z,100.00
2018-12-08T20:54:08.657Z,100.00
2018-12-08T20:56:37.856Z,100.00
2018-12-08T20:59:07.506Z,100.00
2018-12-08T21:01:36.806Z,100.00
2018-12-08T21:04:05.789Z,100.00
2018-12-08T21:06:34.982Z,100.00
2018-12-08T21:09:05.507Z,100.00
2018-12-08T21:11:35.222Z,100.00
2018-12-08T21:14:04.386Z,100.00
2018-12-08T21:16:33.404Z,100.00
2018-12-08T21:19:03.398Z,100.00
2018-12-08T21:21:32.662Z,100.00
2018-12-08T21:24:01.841Z,100.00
2018-12-08T21:26:30.855Z,100.00
2018-12-08T21:28:59.768Z,100.00
2018-12-08T21:31:28.662Z,100.00
2018-12-08T21:33:57.598Z,100.00
2018-12-08T21:36:26.551Z,100.00
2018-12-08T21:38:55.603Z,100.00
2018-12-08T21:41:24.535Z,100.00
2018-12-08T21:43:53.451Z,100.00
2018-12-08T21:46:22.607Z,100.00
2018-12-08T21:48:51.707Z,100.00
2018-12-08T21:51:21.185Z,100.00
2018-12-08T21:53:50.131Z,100.00
2018-12-08T21:56:20.081Z,100.00
2018-12-08T21:58:48.969Z,100.00
2018-12-08T22:01:18.090Z,100.00
2018-12-08T22:03:47.120Z,100.00
2018-12-08T22:06:16.038Z,100.00
2018-12-08T22:08:45.135Z,100.00
2018-12-08T22:11:15.504Z,100.00
2018-12-08T22:13:44.383Z,100.00
2018-12-08T22:16:13.396Z,100.00
2018-12-08T22:18:42.601Z,100.00
2018-12-08T22:21:11.503Z,100.00
2018-12-08T22:23:40.515Z,100.00
2018-12-08T22:26:10.247Z,100.00
2018-12-08T22:28:39.638Z,100.00
2018-12-08T22:31:08.666Z,100.00
2018-12-08T22:33:37.500Z,100.00
2018-12-08T22:36:06.449Z,100.00
2018-12-08T22:38:35.700Z,100.00
2018-12-08T22:41:05.015Z,100.00
2018-12-08T22:43:33.879Z,100.00
2018-12-08T22:46:02.860Z,100.00
2018-12-08T22:48:33.811Z,100.00
2018-12-08T22:51:03.052Z,100.00
2018-12-08T22:53:32.345Z,100.00
2018-12-08T22:56:01.333Z,100.00
2018-12-08T22:58:30.883Z,100.00
2018-12-08T23:01:01.985Z,100.00
2018-12-08T23:03:31.305Z,100.00
2018-12-08T23:06:00.777Z,100.00
2018-12-08T23:08:29.899Z,100.00
2018-12-08T23:11:01.468Z,100.00
2018-12-08T23:13:31.561Z,100.00
2018-12-08T23:16:00.528Z,100.00
2018-12-08T23:18:36.088Z,100.00
2018-12-08T23:21:05.061Z,100.00
2018-12-08T23:23:33.942Z,100.00
2018-12-08T23:26:03.311Z,100.00
2018-12-08T23:28:32.503Z,100.00
2018-12-08T23:31:01.401Z,100.00
2018-12-08T23:33:30.378Z,100.00
2018-12-08T23:35:59.389Z,100.00
2018-12-08T23:38:28.353Z,100.00
2018-12-08T23:40:57.335Z,100.00
2018-12-08T23:43:26.387Z,100.00
2018-12-08T23:45:55.387Z,100.00
2018-12-08T23:48:24.636Z,100.00
2018-12-08T23:50:53.719Z,100.00
2018-12-08T23:53:23.079Z,100.00
2018-12-08T23:55:52.157Z,100.00
2018-12-08T23:58:21.406Z,100.00
